createdAt,value
2019-01-09T00:00:04.770Z,98140.00
2019-01-09T00:02:35.264Z,98152.00
2019-01-09T00:05:06.467Z,98144.00
2019-01-09T00:07:36.992Z,98143.00
2019-01-09T00:10:07.974Z,98147.00
2019-01-09T00:12:38.571Z,98142.00
2019-01-09T00:15:10.416Z,98134.00
2019-01-09T00:17:40.874Z,98134.00
2019-01-09T00:20:11.574Z,98138.00
2019-01-09T00:22:42.075Z,98150.00
2019-01-09T00:25:12.667Z,98153.00
2019-01-09T00:27:43.174Z,98142.00
2019-01-09T00:30:13.805Z,98145.00
2019-01-09T00:32:44.403Z,98150.00
2019-01-09T00:35:14.978Z,98153.00
2019-01-09T00:37:45.478Z,98150.00
2019-01-09T00:40:16.064Z,98150.00
2019-01-09T00:42:46.600Z,98145.00
2019-01-09T00:45:17.126Z,98152.00
2019-01-09T00:47:47.666Z,98160.00
2019-01-09T00:50:18.461Z,98163.00
2019-01-09T00:52:49.074Z,98162.00
2019-01-09T00:55:19.600Z,98158.00
2019-01-09T00:57:50.069Z,98156.00
2019-01-09T01:00:21.523Z,98173.00
2019-01-09T01:03:33.917Z,98173.00
2019-01-09T01:07:02.357Z,98163.00
2019-01-09T01:10:34.104Z,98174.00
2019-01-09T01:13:54.660Z,98170.00
2019-01-09T01:17:24.009Z,98180.00
2019-01-09T01:20:26.790Z,98183.00
2019-01-09T01:23:49.393Z,98185.00
2019-01-09T01:27:05.489Z,98182.00
2019-01-09T01:30:47.695Z,98189.00
2019-01-09T01:33:51.481Z,98182.00
2019-01-09T01:37:40.354Z,98177.00
2019-01-09T01:40:30.853Z,98185.00
2019-01-09T01:43:36.059Z,98196.00
2019-01-09T01:47:12.148Z,98188.00
2019-01-09T01:50:35.892Z,98194.00
2019-01-09T01:54:05.196Z,98191.00
2019-01-09T01:57:17.888Z,98200.00
2019-01-09T02:00:46.369Z,98196.00
2019-01-09T02:04:03.461Z,98190.00
2019-01-09T02:07:38.526Z,98192.00
2019-01-09T02:10:50.587Z,98180.00
2019-01-09T02:14:01.765Z,98195.00
2019-01-09T02:17:22.895Z,98183.00
2019-01-09T02:21:13.983Z,98189.00
2019-01-09T02:24:32.614Z,98184.00
2019-01-09T02:27:27.541Z,98202.00
2019-01-09T02:31:15.410Z,98194.00
2019-01-09T02:33:45.938Z,98197.00
2019-01-09T02:36:16.461Z,98195.00
2019-01-09T02:38:47.080Z,98185.00
2019-01-09T02:41:17.631Z,98200.00
2019-01-09T02:43:48.197Z,98194.00
2019-01-09T02:46:18.767Z,98190.00
2019-01-09T02:48:49.288Z,98199.00
2019-01-09T02:51:19.788Z,98206.00
2019-01-09T02:53:50.252Z,98199.00
2019-01-09T02:56:20.921Z,98201.00
2019-01-09T02:58:51.432Z,98198.00
2019-01-09T03:01:21.979Z,98206.00
2019-01-09T03:03:52.584Z,98205.00
2019-01-09T03:06:23.523Z,98197.00
2019-01-09T03:08:54.240Z,98206.00
2019-01-09T03:11:25.001Z,98215.00
2019-01-09T03:13:55.575Z,98203.00
2019-01-09T03:16:26.132Z,98203.00
2019-01-09T03:18:57.952Z,98198.00
2019-01-09T03:21:28.550Z,98198.00
2019-01-09T03:23:59.197Z,98196.00
2019-01-09T03:26:31.848Z,98198.00
2019-01-09T03:29:02.398Z,98190.00
2019-01-09T03:31:32.925Z,98194.00
2019-01-09T03:34:03.580Z,98194.00
2019-01-09T03:36:34.160Z,98188.00
2019-01-09T03:39:06.244Z,98187.00
2019-01-09T03:41:36.796Z,98190.00
2019-01-09T03:44:07.445Z,98202.00
2019-01-09T03:46:38.247Z,98199.00
2019-01-09T03:49:08.808Z,98207.00
2019-01-09T03:51:39.422Z,98199.00
2019-01-09T03:54:10.085Z,98207.00
2019-01-09T03:56:40.626Z,98203.00
2019-01-09T03:59:11.187Z,98204.00
2019-01-09T04:01:41.701Z,98204.00
2019-01-09T04:04:12.535Z,98214.00
2019-01-09T04:06:43.108Z,98210.00
2019-01-09T04:09:15.369Z,98224.00
2019-01-09T04:11:46.026Z,98220.00
2019-01-09T04:14:18.149Z,98225.00
2019-01-09T04:16:48.698Z,98220.00
2019-01-09T04:19:19.425Z,98232.00
2019-01-09T04:21:51.520Z,98222.00
2019-01-09T04:24:22.201Z,98220.00
2019-01-09T04:26:52.772Z,98217.00
2019-01-09T04:29:23.413Z,98218.00
2019-01-09T04:31:53.937Z,98230.00
2019-01-09T04:34:24.565Z,98226.00
2019-01-09T04:36:55.057Z,98223.00
2019-01-09T04:39:25.625Z,98224.00
2019-01-09T04:41:57.925Z,98221.00
2019-01-09T04:44:28.508Z,98224.00
2019-01-09T04:46:59.047Z,98223.00
2019-01-09T04:49:29.566Z,98222.00
2019-01-09T04:52:00.198Z,98220.00
2019-01-09T04:54:30.777Z,98218.00
2019-01-09T04:57:01.710Z,98236.00
2019-01-09T04:59:32.436Z,98227.00
2019-01-09T05:02:05.364Z,98222.00
2019-01-09T05:04:35.996Z,98226.00
2019-01-09T05:07:06.808Z,98238.00
2019-01-09T05:09:37.450Z,98228.00
2019-01-09T05:12:07.976Z,98231.00
2019-01-09T05:14:38.615Z,98249.00
2019-01-09T05:17:09.263Z,98234.00
2019-01-09T05:19:39.805Z,98235.00
2019-01-09T05:22:11.830Z,98252.00
2019-01-09T05:24:42.725Z,98252.00
2019-01-09T05:27:13.592Z,98250.00
2019-01-09T05:29:44.407Z,98250.00
2019-01-09T05:32:15.491Z,98257.00
2019-01-09T05:34:45.969Z,98257.00
2019-01-09T05:37:16.666Z,98248.00
2019-01-09T05:39:47.386Z,98256.00
2019-01-09T05:42:17.971Z,98255.00
2019-01-09T05:44:48.718Z,98263.00
2019-01-09T05:47:19.515Z,98261.00
2019-01-09T05:49:51.569Z,98269.00
2019-01-09T05:52:25.196Z,98268.00
2019-01-09T05:54:56.026Z,98262.00
2019-01-09T05:57:26.591Z,98280.00
2019-01-09T05:59:57.347Z,98264.00
2019-01-09T06:02:28.141Z,98282.00
2019-01-09T06:04:58.845Z,98279.00
2019-01-09T06:07:30.322Z,98282.00
2019-01-09T06:10:01.094Z,98285.00
2019-01-09T06:12:34.420Z,98290.00
2019-01-09T06:15:05.768Z,98288.00
2019-01-09T06:17:40.025Z,98305.00
2019-01-09T06:20:12.432Z,98296.00
2019-01-09T06:22:43.509Z,98306.00
2019-01-09T06:25:16.182Z,98314.00
2019-01-09T06:27:46.731Z,98307.00
2019-01-09T06:30:17.280Z,98310.00
2019-01-09T06:32:47.781Z,98309.00
2019-01-09T06:35:19.831Z,98315.00
2019-01-09T06:37:52.432Z,98315.00
2019-01-09T06:40:24.631Z,98324.00
2019-01-09T06:42:56.637Z,98326.00
2019-01-09T06:45:31.271Z,98322.00
2019-01-09T06:48:04.998Z,98331.00
2019-01-09T06:50:36.275Z,98335.00
2019-01-09T06:53:07.865Z,98339.00
2019-01-09T06:55:40.472Z,98344.00
2019-01-09T06:58:13.102Z,98351.00
2019-01-09T07:00:46.269Z,98341.00
2019-01-09T07:03:17.234Z,98355.00
2019-01-09T07:05:49.323Z,98354.00
2019-01-09T07:08:20.148Z,98359.00
2019-01-09T07:10:55.198Z,98362.00
2019-01-09T07:13:26.653Z,98363.00
2019-01-09T07:16:01.182Z,98366.00
2019-01-09T07:18:33.817Z,98358.00
2019-01-09T07:21:05.124Z,98372.00
2019-01-09T07:23:36.681Z,98363.00
2019-01-09T07:26:07.864Z,98373.00
2019-01-09T07:28:38.921Z,98377.00
2019-01-09T07:31:09.850Z,98371.00
2019-01-09T07:33:40.365Z,98378.00
2019-01-09T07:36:17.376Z,98373.00
2019-01-09T07:38:50.118Z,98375.00
2019-01-09T07:41:21.046Z,98382.00
2019-01-09T07:43:53.192Z,98380.00
2019-01-09T07:46:23.779Z,98388.00
2019-01-09T07:48:54.711Z,98393.00
2019-01-09T07:51:28.385Z,98392.00
2019-01-09T07:54:00.848Z,98397.00
2019-01-09T07:56:31.310Z,98392.00
2019-01-09T07:59:05.915Z,98387.00
2019-01-09T08:01:40.930Z,98400.00
2019-01-09T08:04:15.152Z,98399.00
2019-01-09T08:06:46.120Z,98407.00
2019-01-09T08:09:17.314Z,98402.00
2019-01-09T08:11:48.380Z,98412.00
2019-01-09T08:14:21.832Z,98413.00
2019-01-09T08:16:52.522Z,98415.00
2019-01-09T08:19:24.319Z,98417.00
2019-01-09T08:21:55.427Z,98423.00
2019-01-09T08:24:30.955Z,98422.00
2019-01-09T08:27:02.667Z,98424.00
2019-01-09T08:29:33.860Z,98421.00
2019-01-09T08:32:04.660Z,98398.00
2019-01-09T08:34:36.030Z,98435.00
2019-01-09T08:37:06.643Z,98439.00
2019-01-09T08:39:39.704Z,98429.00
2019-01-09T08:42:13.020Z,98431.00
2019-01-09T08:44:43.845Z,98438.00
2019-01-09T08:47:14.530Z,98443.00
2019-01-09T08:49:45.413Z,98459.00
2019-01-09T08:52:18.279Z,98452.00
2019-01-09T08:54:49.377Z,98448.00
2019-01-09T08:57:20.471Z,98460.00
2019-01-09T08:59:52.779Z,98455.00
2019-01-09T09:02:23.999Z,98455.00
2019-01-09T09:04:59.484Z,98465.00
2019-01-09T09:07:35.291Z,98459.00
2019-01-09T09:10:11.266Z,98469.00
2019-01-09T09:12:42.677Z,98474.00
2019-01-09T09:15:15.762Z,98475.00
2019-01-09T09:17:48.458Z,98470.00
2019-01-09T09:20:24.831Z,98477.00
2019-01-09T09:22:58.657Z,98481.00
2019-01-09T09:25:30.871Z,98479.00
2019-01-09T09:28:04.851Z,98481.00
2019-01-09T09:30:35.925Z,98483.00
2019-01-09T09:33:12.100Z,98488.00
2019-01-09T09:35:48.176Z,98490.00
2019-01-09T09:38:20.687Z,98490.00
2019-01-09T09:40:53.427Z,98481.00
2019-01-09T09:43:25.942Z,98491.00
2019-01-09T09:45:59.427Z,98490.00
2019-01-09T09:48:33.118Z,98493.00
2019-01-09T09:51:06.065Z,98488.00
2019-01-09T09:53:37.315Z,98501.00
2019-01-09T09:56:12.976Z,98505.00
2019-01-09T09:58:44.733Z,98508.00
2019-01-09T10:01:15.929Z,98501.00
2019-01-09T10:03:46.978Z,98503.00
2019-01-09T10:06:22.007Z,98507.00
2019-01-09T10:08:54.433Z,98511.00
2019-01-09T10:11:26.666Z,98506.00
2019-01-09T10:13:57.529Z,98498.00
2019-01-09T10:16:29.274Z,98498.00
2019-01-09T10:19:03.069Z,98501.00
2019-01-09T10:21:38.353Z,98512.00
2019-01-09T10:24:12.941Z,98503.00
2019-01-09T10:26:45.722Z,98511.00
2019-01-09T10:29:19.282Z,98513.00
2019-01-09T10:31:52.538Z,98502.00
2019-01-09T10:34:24.218Z,98519.00
2019-01-09T10:36:57.128Z,98514.00
2019-01-09T10:39:28.021Z,98512.00
2019-01-09T10:42:04.801Z,98518.00
2019-01-09T10:44:35.630Z,98509.00
2019-01-09T10:47:08.232Z,98524.00
2019-01-09T10:49:39.673Z,98522.00
2019-01-09T10:52:10.652Z,98525.00
2019-01-09T10:54:43.509Z,98525.00
2019-01-09T10:57:18.072Z,98528.00
2019-01-09T10:59:49.072Z,98524.00
2019-01-09T11:02:28.291Z,98529.00
2019-01-09T11:05:00.378Z,98530.00
2019-01-09T11:07:35.377Z,98516.00
2019-01-09T11:10:08.385Z,98524.00
2019-01-09T11:12:39.453Z,98527.00
2019-01-09T11:15:12.290Z,98516.00
2019-01-09T11:17:43.617Z,98526.00
2019-01-09T11:20:20.412Z,98526.00
2019-01-09T11:22:59.245Z,98527.00
2019-01-09T11:25:32.715Z,98536.00
2019-01-09T11:28:07.930Z,98523.00
2019-01-09T11:30:39.364Z,98528.00
2019-01-09T11:33:11.955Z,98525.00
2019-01-09T11:35:43.920Z,98530.00
2019-01-09T11:38:17.958Z,98536.00
2019-01-09T11:40:53.060Z,98521.00
2019-01-09T11:43:24.204Z,98537.00
2019-01-09T11:45:58.662Z,98521.00
2019-01-09T11:48:30.879Z,98531.00
2019-01-09T11:51:04.175Z,98535.00
2019-01-09T11:53:37.006Z,98531.00
2019-01-09T11:56:07.967Z,98528.00
2019-01-09T11:58:41.789Z,98530.00
2019-01-09T12:01:12.905Z,98527.00
2019-01-09T12:03:44.233Z,98529.00
2019-01-09T12:06:15.440Z,98530.00
2019-01-09T12:08:49.274Z,98538.00
2019-01-09T12:11:25.605Z,98549.00
2019-01-09T12:13:59.191Z,98540.00
2019-01-09T12:16:33.243Z,98543.00
2019-01-09T12:19:08.003Z,98551.00
2019-01-09T12:21:39.232Z,98543.00
2019-01-09T12:24:12.673Z,98552.00
2019-01-09T12:26:52.421Z,98560.00
2019-01-09T12:29:24.149Z,98566.00
2019-01-09T12:31:55.294Z,98568.00
2019-01-09T12:34:28.316Z,98569.00
2019-01-09T12:36:59.226Z,98575.00
2019-01-09T12:39:30.281Z,98576.00
2019-01-09T12:42:00.825Z,98574.00
2019-01-09T12:44:31.540Z,98596.00
2019-01-09T12:47:02.132Z,98589.00
2019-01-09T12:49:32.609Z,98600.00
2019-01-09T12:52:03.216Z,98602.00
2019-01-09T12:54:33.842Z,98605.00
2019-01-09T12:57:04.313Z,98610.00
2019-01-09T12:59:34.850Z,98621.00
2019-01-09T13:02:05.332Z,98618.00
2019-01-09T13:04:35.966Z,98616.00
2019-01-09T13:07:06.739Z,98623.00
2019-01-09T13:09:37.585Z,98628.00
2019-01-09T13:12:08.267Z,98642.00
2019-01-09T13:14:38.733Z,98639.00
2019-01-09T13:17:11.990Z,98642.00
2019-01-09T13:19:41.919Z,98647.00
2019-01-09T13:22:12.433Z,98652.00
2019-01-09T13:24:43.188Z,98652.00
2019-01-09T13:27:16.359Z,98661.00
2019-01-09T13:29:46.906Z,98662.00
2019-01-09T13:32:18.057Z,98657.00
2019-01-09T13:34:48.744Z,98655.00
2019-01-09T13:37:19.398Z,98665.00
2019-01-09T13:39:49.860Z,98657.00
2019-01-09T13:42:20.575Z,98668.00
2019-01-09T13:44:51.200Z,98665.00
2019-01-09T13:47:21.712Z,98669.00
2019-01-09T13:49:53.451Z,98679.00
2019-01-09T13:52:24.264Z,98677.00
2019-01-09T13:54:55.036Z,98686.00
2019-01-09T13:57:25.788Z,98681.00
2019-01-09T13:59:58.112Z,98677.00
2019-01-09T14:02:28.847Z,98692.00
2019-01-09T14:04:59.411Z,98691.00
2019-01-09T14:07:30.343Z,98696.00
2019-01-09T14:10:01.017Z,98694.00
2019-01-09T14:12:31.470Z,98705.00
2019-01-09T14:15:05.329Z,98700.00
2019-01-09T14:17:36.059Z,98708.00
2019-01-09T14:20:08.608Z,98715.00
2019-01-09T14:22:39.188Z,98712.00
2019-01-09T14:25:11.235Z,98724.00
2019-01-09T14:27:41.834Z,98717.00
2019-01-09T14:30:19.567Z,98722.00
2019-01-09T14:32:50.621Z,98724.00
2019-01-09T14:35:21.701Z,98727.00
2019-01-09T14:37:54.078Z,98736.00
2019-01-09T14:40:24.831Z,98747.00
2019-01-09T14:42:55.515Z,98739.00
2019-01-09T14:45:26.223Z,98742.00
2019-01-09T14:47:56.774Z,98746.00
2019-01-09T14:50:27.612Z,98745.00
2019-01-09T14:52:58.447Z,98751.00
2019-01-09T14:55:30.820Z,98740.00
2019-01-09T14:58:01.536Z,98758.00
2019-01-09T15:00:35.064Z,98757.00
2019-01-09T15:03:05.959Z,98767.00
2019-01-09T15:05:43.038Z,98770.00
2019-01-09T15:08:08.981Z,98780.00
2019-01-09T15:10:39.899Z,98782.00
2019-01-09T15:13:11.781Z,98771.00
2019-01-09T15:15:42.711Z,98792.00
2019-01-09T15:18:18.675Z,98783.00
2019-01-09T15:20:49.339Z,98796.00
2019-01-09T15:23:20.177Z,98791.00
2019-01-09T15:25:51.403Z,98798.00
2019-01-09T15:28:22.246Z,98786.00
2019-01-09T15:30:53.480Z,98805.00
2019-01-09T15:33:24.882Z,98804.00
2019-01-09T15:35:56.815Z,98806.00
2019-01-09T15:38:27.593Z,98811.00
2019-01-09T15:41:00.481Z,98824.00
2019-01-09T15:43:31.175Z,98818.00
2019-01-09T15:46:01.979Z,98818.00
2019-01-09T15:48:32.914Z,98828.00
2019-01-09T15:51:03.857Z,98825.00
2019-01-09T15:53:34.646Z,98831.00
2019-01-09T15:56:05.361Z,98829.00
2019-01-09T15:58:37.366Z,98831.00
2019-01-09T16:01:08.613Z,98829.00
2019-01-09T16:03:39.326Z,98830.00
2019-01-09T16:06:09.958Z,98839.00
2019-01-09T16:08:40.594Z,98840.00
2019-01-09T16:11:11.364Z,98850.00
2019-01-09T16:13:42.108Z,98837.00
2019-01-09T16:16:12.765Z,98842.00
2019-01-09T16:18:45.283Z,98855.00
2019-01-09T16:21:15.836Z,98852.00
2019-01-09T16:23:49.650Z,98856.00
2019-01-09T16:26:20.208Z,98858.00
2019-01-09T16:28:51.891Z,98857.00
2019-01-09T16:31:35.892Z,98858.00
2019-01-09T16:34:07.232Z,98871.00
2019-01-09T16:36:38.615Z,98868.00
2019-01-09T16:39:17.595Z,98876.00
2019-01-09T16:41:48.184Z,98872.00
2019-01-09T16:44:18.910Z,98880.00
2019-01-09T16:46:49.590Z,98882.00
2019-01-09T16:49:27.693Z,98883.00
2019-01-09T16:51:52.353Z,98891.00
2019-01-09T16:54:23.246Z,98895.00
2019-01-09T16:56:53.826Z,98895.00
2019-01-09T16:59:24.534Z,98893.00
2019-01-09T17:01:58.699Z,98899.00
2019-01-09T17:04:29.703Z,98902.00
2019-01-09T17:07:00.290Z,98908.00
2019-01-09T17:09:31.096Z,98907.00
2019-01-09T17:12:01.874Z,98917.00
2019-01-09T17:14:32.506Z,98919.00
2019-01-09T17:17:03.235Z,98912.00
2019-01-09T17:19:33.879Z,98911.00
2019-01-09T17:22:04.781Z,98914.00
2019-01-09T17:24:35.399Z,98914.00
2019-01-09T17:27:06.463Z,98913.00
2019-01-09T17:29:37.122Z,98930.00
2019-01-09T17:32:07.867Z,98930.00
2019-01-09T17:34:38.633Z,98926.00
2019-01-09T17:37:09.474Z,98926.00
2019-01-09T17:39:40.145Z,98931.00
2019-01-09T17:42:11.012Z,98937.00
2019-01-09T17:44:41.671Z,98944.00
2019-01-09T17:47:12.258Z,98945.00
2019-01-09T17:49:43.303Z,98954.00
2019-01-09T17:52:14.188Z,98952.00
2019-01-09T17:54:44.813Z,98955.00
2019-01-09T17:57:15.253Z,98957.00
2019-01-09T17:59:46.275Z,98941.00
2019-01-09T18:02:20.013Z,98970.00
2019-01-09T18:04:50.983Z,98971.00
2019-01-09T18:07:22.034Z,98974.00
2019-01-09T18:09:54.279Z,98983.00
2019-01-09T18:12:24.990Z,98990.00
2019-01-09T18:14:57.453Z,98987.00
2019-01-09T18:17:28.221Z,98995.00
2019-01-09T18:19:59.202Z,98994.00
2019-01-09T18:22:29.802Z,98992.00
2019-01-09T18:25:00.489Z,98997.00
2019-01-09T18:27:33.950Z,99003.00
2019-01-09T18:30:07.162Z,98995.00
2019-01-09T18:32:59.086Z,99001.00
2019-01-09T18:36:24.299Z,99009.00
2019-01-09T18:39:47.355Z,99004.00
2019-01-09T18:43:06.115Z,99016.00
2019-01-09T18:46:21.483Z,99021.00
2019-01-09T18:49:44.381Z,99008.00
2019-01-09T18:53:01.477Z,99029.00
2019-01-09T18:55:35.868Z,99027.00
2019-01-09T18:58:10.111Z,99038.00
2019-01-09T19:00:40.978Z,99034.00
2019-01-09T19:03:11.785Z,99048.00
2019-01-09T19:05:42.513Z,99056.00
2019-01-09T19:08:13.963Z,99063.00
2019-01-09T19:10:44.588Z,99065.00
2019-01-09T19:13:15.310Z,99063.00
2019-01-09T19:15:46.316Z,99071.00
2019-01-09T19:18:17.150Z,99078.00
2019-01-09T19:20:48.902Z,99075.00
2019-01-09T19:23:20.704Z,99012.00
2019-01-09T19:25:51.353Z,99090.00
2019-01-09T19:28:21.987Z,99095.00
2019-01-09T19:30:52.614Z,99095.00
2019-01-09T19:33:23.305Z,99101.00
2019-01-09T19:35:53.886Z,99101.00
2019-01-09T19:38:26.560Z,99100.00
2019-01-09T19:40:59.882Z,99097.00
2019-01-09T19:43:30.570Z,99108.00
2019-01-09T19:46:01.260Z,99113.00
2019-01-09T19:48:33.227Z,99108.00
2019-01-09T19:51:04.076Z,99118.00
2019-01-09T19:53:34.895Z,99125.00
2019-01-09T19:56:05.909Z,99128.00
2019-01-09T19:58:36.492Z,99127.00
2019-01-09T20:01:07.129Z,99138.00
2019-01-09T20:03:39.196Z,99131.00
2019-01-09T20:06:10.954Z,99132.00
2019-01-09T20:08:44.040Z,99145.00
2019-01-09T20:11:14.931Z,99144.00
2019-01-09T20:13:46.835Z,99141.00
2019-01-09T20:16:17.678Z,99141.00
2019-01-09T20:18:51.511Z,99145.00
2019-01-09T20:21:22.126Z,99157.00
2019-01-09T20:23:52.703Z,99147.00
2019-01-09T20:26:23.404Z,99165.00
2019-01-09T20:28:55.261Z,99161.00
2019-01-09T20:31:25.909Z,99172.00
2019-01-09T20:33:56.633Z,99172.00
2019-01-09T20:36:27.481Z,99174.00
2019-01-09T20:38:59.158Z,99175.00
2019-01-09T20:41:35.159Z,99175.00
2019-01-09T20:44:02.320Z,99182.00
2019-01-09T20:46:33.063Z,99182.00
2019-01-09T20:49:04.084Z,99186.00
2019-01-09T20:51:34.862Z,99187.00
2019-01-09T20:54:24.617Z,99189.00
2019-01-09T20:56:55.237Z,99188.00
2019-01-09T20:59:25.987Z,99191.00
2019-01-09T21:01:58.036Z,99201.00
2019-01-09T21:04:29.045Z,99199.00
2019-01-09T21:06:59.890Z,99203.00
2019-01-09T21:09:30.911Z,99211.00
2019-01-09T21:12:03.126Z,99217.00
2019-01-09T21:14:33.934Z,99227.00
2019-01-09T21:17:04.793Z,99218.00
2019-01-09T21:19:35.570Z,99225.00
2019-01-09T21:22:06.597Z,99228.00
2019-01-09T21:24:37.251Z,99224.00
2019-01-09T21:27:08.123Z,99236.00
2019-01-09T21:29:39.001Z,99238.00
2019-01-09T21:32:11.341Z,99244.00
2019-01-09T21:34:42.029Z,99250.00
2019-01-09T21:37:13.791Z,99248.00
2019-01-09T21:39:44.654Z,99251.00
2019-01-09T21:42:17.045Z,99246.00
2019-01-09T21:44:47.610Z,99255.00
2019-01-09T21:47:18.581Z,99261.00
2019-01-09T21:49:49.214Z,99266.00
2019-01-09T21:52:19.962Z,99274.00
2019-01-09T21:54:50.727Z,99270.00
2019-01-09T21:57:21.412Z,99275.00
2019-01-09T21:59:52.060Z,99288.00
2019-01-09T22:02:22.759Z,99278.00
2019-01-09T22:04:53.820Z,99285.00
2019-01-09T22:07:24.386Z,99289.00
2019-01-09T22:09:54.971Z,99292.00
2019-01-09T22:12:25.691Z,99294.00
2019-01-09T22:14:56.358Z,99285.00
2019-01-09T22:17:27.008Z,99286.00
2019-01-09T22:19:58.974Z,99309.00
2019-01-09T22:22:29.724Z,99307.00
2019-01-09T22:25:02.200Z,99315.00
2019-01-09T22:27:32.853Z,99315.00
2019-01-09T22:30:07.729Z,99311.00
2019-01-09T22:32:38.512Z,99281.00
2019-01-09T22:35:09.868Z,99322.00
2019-01-09T22:37:40.531Z,99332.00
2019-01-09T22:40:15.109Z,99326.00
2019-01-09T22:42:45.772Z,99329.00
2019-01-09T22:45:17.515Z,99334.00
2019-01-09T22:47:48.289Z,99323.00
2019-01-09T22:50:21.918Z,99332.00
2019-01-09T22:52:53.638Z,99328.00
2019-01-09T22:55:24.374Z,99343.00
2019-01-09T22:57:57.468Z,99344.00
2019-01-09T23:00:45.246Z,99347.00
2019-01-09T23:03:16.911Z,99353.00
2019-01-09T23:05:48.778Z,99350.00
2019-01-09T23:08:20.899Z,99353.00
2019-01-09T23:10:54.982Z,99351.00
2019-01-09T23:13:23.901Z,99362.00
2019-01-09T23:15:54.369Z,99362.00
2019-01-09T23:18:25.024Z,99368.00
2019-01-09T23:20:55.587Z,99368.00
2019-01-09T23:23:26.312Z,99369.00
2019-01-09T23:25:58.076Z,99371.00
2019-01-09T23:28:31.724Z,99368.00
2019-01-09T23:31:03.911Z,99375.00
2019-01-09T23:33:37.234Z,99377.00
2019-01-09T23:36:08.819Z,99377.00
2019-01-09T23:38:39.621Z,99380.00
2019-01-09T23:41:10.165Z,99385.00
2019-01-09T23:43:40.921Z,99387.00
2019-01-09T23:46:12.596Z,99395.00
2019-01-09T23:48:43.219Z,99394.00
2019-01-09T23:51:13.875Z,99391.00
2019-01-09T23:53:44.484Z,99395.00
2019-01-09T23:56:15.177Z,99402.00
2019-01-09T23:58:46.014Z,99416.00
